Time;durP1;ratioP1;P1;durP2;ratioP2;P2;SDS_P1;SDS_P2;PMS_P1;PMS_P2;Temp;Humidity;BMP_temperature;BMP_pressure;BME280_temperature;BME280_humidity;BME280_pressure;Samples;Min_cycle;Max_cycle;Signal;HPM_P1;HPM_P2
2022/11/10 00:01:56;;;;;;;0.90;0.40;;;12.60;99.90;;;;;;5093108;28;20422;-71
2022/11/10 00:04:23;;;;;;;0.88;0.40;;;12.50;99.90;;;;;;5084671;28;20471;-71
2022/11/10 00:06:50;;;;;;;0.60;0.30;;;12.60;99.90;;;;;;5086052;28;20446;-72
2022/11/10 00:09:17;;;;;;;0.80;0.40;;;12.60;99.90;;;;;;5087289;28;20427;-71
2022/11/10 00:11:43;;;;;;;1.10;0.40;;;12.60;99.90;;;;;;5094909;28;20433;-72
2022/11/10 00:17:03;;;;;;;1.80;0.40;;;12.50;99.90;;;;;;5088085;28;20709;-71
2022/11/10 00:19:31;;;;;;;0.70;0.40;;;12.50;99.90;;;;;;5087353;28;20424;-71
2022/11/10 00:21:58;;;;;;;0.50;0.40;;;12.50;99.90;;;;;;5095591;28;20457;-71
2022/11/10 00:24:25;;;;;;;1.60;0.30;;;12.50;99.90;;;;;;5086219;28;20796;-73
2022/11/10 00:26:52;;;;;;;0.93;0.40;;;12.50;99.90;;;;;;5093531;28;20422;-73
2022/11/10 00:29:21;;;;;;;1.10;0.40;;;12.50;99.90;;;;;;5093818;28;20465;-73
2022/11/10 00:31:48;;;;;;;0.70;0.40;;;12.40;99.90;;;;;;5094403;28;20483;-73
2022/11/10 00:34:16;;;;;;;0.80;0.40;;;12.40;99.90;;;;;;5094093;28;20839;-70
2022/11/10 00:36:43;;;;;;;1.17;0.40;;;12.50;99.90;;;;;;5094372;28;20422;-71
2022/11/10 00:39:11;;;;;;;1.60;0.40;;;12.50;99.90;;;;;;5094560;28;20715;-72
2022/11/10 00:41:38;;;;;;;0.57;0.30;;;12.50;99.90;;;;;;5093949;28;20862;-73
2022/11/10 00:44:05;;;;;;;0.93;0.40;;;12.40;99.90;;;;;;5088001;28;20983;-72
2022/11/10 00:46:33;;;;;;;1.40;0.40;;;12.50;99.90;;;;;;5091814;28;20442;-72
2022/11/10 00:49:00;;;;;;;0.95;0.47;;;12.60;99.90;;;;;;5094546;28;20801;-72
2022/11/10 00:51:29;;;;;;;1.30;0.30;;;12.70;99.90;;;;;;5095170;28;20457;-73
2022/11/10 00:53:56;;;;;;;1.75;0.50;;;12.70;99.90;;;;;;5095647;28;20527;-72
2022/11/10 00:56:24;;;;;;;1.40;0.50;;;12.60;99.90;;;;;;5095253;28;20480;-72
2022/11/10 00:58:51;;;;;;;0.60;0.40;;;12.50;99.90;;;;;;5095005;28;20764;-72
2022/11/10 01:01:19;;;;;;;1.45;0.40;;;12.60;99.90;;;;;;5095537;28;20457;-72
2022/11/10 01:03:48;;;;;;;1.00;0.50;;;12.60;99.90;;;;;;5094784;28;20458;-72
2022/11/10 01:06:17;;;;;;;0.70;0.30;;;12.60;99.90;;;;;;5095113;28;20418;-72
2022/11/10 01:08:45;;;;;;;1.73;0.40;;;12.60;99.90;;;;;;5099382;28;20798;-72
2022/11/10 01:11:14;;;;;;;0.98;0.30;;;12.60;99.90;;;;;;5099318;28;20888;-72
2022/11/10 01:13:42;;;;;;;1.00;0.40;;;12.60;99.90;;;;;;5096965;28;20418;-72
2022/11/10 01:16:11;;;;;;;1.40;0.40;;;12.60;99.90;;;;;;5093907;28;20479;-71
2022/11/10 01:18:39;;;;;;;0.60;0.30;;;12.60;99.90;;;;;;5098741;28;20801;-72
2022/11/10 01:21:07;;;;;;;0.95;0.40;;;12.50;99.90;;;;;;5098915;28;20417;-72
2022/11/10 01:23:34;;;;;;;0.70;0.40;;;12.50;99.90;;;;;;5098761;28;20449;-71
2022/11/10 01:26:04;;;;;;;1.65;0.50;;;12.40;99.90;;;;;;5099152;28;20417;-71
2022/11/10 01:28:32;;;;;;;1.55;0.40;;;12.30;99.90;;;;;;5099077;28;20784;-71
2022/11/10 01:30:59;;;;;;;0.98;0.40;;;12.20;99.90;;;;;;5098376;28;20487;-71
2022/11/10 01:33:27;;;;;;;2.10;0.40;;;12.20;99.90;;;;;;5098481;28;20841;-71
2022/11/10 01:35:54;;;;;;;1.60;0.40;;;12.20;99.90;;;;;;5098499;28;20445;-73
2022/11/10 01:38:22;;;;;;;1.83;0.50;;;12.20;99.90;;;;;;5099147;28;20479;-73
2022/11/10 01:40:49;;;;;;;1.52;0.40;;;12.20;99.90;;;;;;5099273;28;20509;-73
2022/11/10 01:43:16;;;;;;;1.58;0.50;;;12.10;99.90;;;;;;5098604;28;20465;-72
2022/11/10 01:45:52;;;;;;;1.70;0.50;;;12.00;99.90;;;;;;5099268;28;20480;-72
2022/11/10 01:48:26;;;;;;;0.70;0.40;;;12.00;99.90;;;;;;5098991;28;20445;-73
2022/11/10 01:50:54;;;;;;;1.40;0.40;;;12.00;99.90;;;;;;5098750;28;21068;-72
2022/11/10 01:53:27;;;;;;;1.50;0.40;;;12.00;99.90;;;;;;5098546;28;20488;-73
2022/11/10 01:55:55;;;;;;;0.70;0.40;;;12.00;99.90;;;;;;5098592;28;20496;-72
2022/11/10 01:58:29;;;;;;;1.70;0.50;;;12.00;99.90;;;;;;5098982;28;20426;-71
2022/11/10 02:00:56;;;;;;;1.80;0.40;;;12.00;99.90;;;;;;5097250;28;20418;-72
2022/11/10 02:03:28;;;;;;;1.60;0.50;;;12.00;99.90;;;;;;5097345;28;20434;-73
2022/11/10 02:05:55;;;;;;;1.15;0.40;;;12.10;99.90;;;;;;5098443;28;20721;-73
2022/11/10 02:08:25;;;;;;;1.90;0.50;;;12.10;99.90;;;;;;5097977;28;20410;-72
2022/11/10 02:10:52;;;;;;;1.70;0.40;;;12.20;99.90;;;;;;5098594;28;20869;-72
2022/11/10 02:13:19;;;;;;;1.75;0.50;;;12.30;99.90;;;;;;5096594;28;20444;-72
2022/11/10 02:15:46;;;;;;;1.20;0.50;;;12.20;99.90;;;;;;5096774;28;20470;-72
2022/11/10 02:18:13;;;;;;;1.88;0.50;;;12.10;99.90;;;;;;5096902;28;20437;-72
2022/11/10 02:20:45;;;;;;;2.20;0.40;;;12.00;99.90;;;;;;5097343;28;20429;-71
2022/11/10 02:23:14;;;;;;;1.73;0.50;;;12.00;99.90;;;;;;5097405;28;20425;-72
2022/11/10 02:25:41;;;;;;;1.10;0.40;;;12.00;99.90;;;;;;5097883;28;20489;-72
2022/11/10 02:28:08;;;;;;;1.13;0.50;;;12.00;99.90;;;;;;5098030;28;20484;-72
2022/11/10 02:30:35;;;;;;;1.75;0.50;;;11.90;99.90;;;;;;5098305;28;20556;-72
2022/11/10 02:33:02;;;;;;;0.70;0.40;;;11.80;99.90;;;;;;5097720;28;20558;-72
2022/11/10 02:35:32;;;;;;;1.70;0.50;;;11.80;99.90;;;;;;5097454;28;20426;-72
2022/11/10 02:38:06;;;;;;;3.20;0.50;;;11.70;99.90;;;;;;5097620;28;20471;-72
2022/11/10 02:40:33;;;;;;;0.98;0.50;;;11.70;99.90;;;;;;5097556;28;20426;-73
2022/11/10 02:43:09;;;;;;;1.00;0.50;;;11.70;99.90;;;;;;5097372;28;20913;-72
2022/11/10 02:45:41;;;;;;;1.90;0.40;;;11.70;99.90;;;;;;5097342;28;20479;-73
2022/11/10 02:48:23;;;;;;;1.20;0.40;;;11.70;99.90;;;;;;5096766;28;20726;-73
2022/11/10 02:50:50;;;;;;;1.90;0.50;;;11.70;99.90;;;;;;5094677;28;20441;-73
2022/11/10 02:53:26;;;;;;;2.13;0.50;;;11.70;99.90;;;;;;5097050;28;20418;-72
2022/11/10 02:55:53;;;;;;;1.10;0.45;;;11.70;99.90;;;;;;5097182;28;20773;-72
2022/11/10 02:58:25;;;;;;;0.80;0.50;;;11.60;99.90;;;;;;5096986;28;20446;-73
2022/11/10 03:00:52;;;;;;;1.40;0.50;;;11.50;99.90;;;;;;5097176;28;20421;-72
2022/11/10 03:03:19;;;;;;;2.22;0.55;;;11.50;99.90;;;;;;5097128;28;20790;-72
2022/11/10 03:05:46;;;;;;;1.50;0.40;;;11.40;99.90;;;;;;5097153;28;20505;-73
2022/11/10 03:08:13;;;;;;;1.60;0.40;;;11.40;99.90;;;;;;5096992;28;20464;-72
2022/11/10 03:10:41;;;;;;;0.63;0.40;;;11.40;99.90;;;;;;5097191;28;20469;-72
2022/11/10 03:13:08;;;;;;;1.70;0.50;;;11.40;99.90;;;;;;5096792;28;20714;-72
2022/11/10 03:15:35;;;;;;;2.90;0.50;;;11.40;99.90;;;;;;5096561;28;20422;-72
2022/11/10 03:18:04;;;;;;;1.80;0.50;;;11.40;99.90;;;;;;5096279;28;20422;-72
2022/11/10 03:20:31;;;;;;;1.70;0.40;;;11.40;99.90;;;;;;5096983;28;20468;-72
2022/11/10 03:23:01;;;;;;;1.23;0.43;;;11.40;99.90;;;;;;5096946;28;20418;-73
2022/11/10 03:25:28;;;;;;;1.53;0.40;;;11.50;99.90;;;;;;5096721;28;20521;-72
2022/11/10 03:27:57;;;;;;;3.03;0.50;;;11.50;99.90;;;;;;5097007;28;20764;-72
2022/11/10 03:30:24;;;;;;;1.60;0.50;;;11.50;99.90;;;;;;5095897;28;20461;-72
2022/11/10 03:32:51;;;;;;;3.00;0.60;;;11.50;99.90;;;;;;5096692;28;20475;-73
2022/11/10 03:35:18;;;;;;;1.60;0.60;;;11.50;99.90;;;;;;5096803;28;20453;-72
2022/11/10 03:37:45;;;;;;;0.70;0.60;;;11.60;99.90;;;;;;5096939;28;20498;-72
2022/11/10 03:40:12;;;;;;;2.28;0.50;;;11.50;99.90;;;;;;5096949;28;20788;-71
2022/11/10 03:42:42;;;;;;;1.60;0.50;;;11.50;99.90;;;;;;5096966;28;20872;-72
2022/11/10 03:45:13;;;;;;;1.00;0.50;;;11.50;99.90;;;;;;5097114;28;20527;-72
2022/11/10 03:47:41;;;;;;;1.08;0.50;;;11.50;99.90;;;;;;5096593;28;20437;-72
2022/11/10 03:50:08;;;;;;;1.25;0.50;;;11.40;99.90;;;;;;5096662;28;20436;-73
2022/11/10 03:52:35;;;;;;;1.50;0.50;;;11.40;99.90;;;;;;5096092;28;20802;-71
2022/11/10 03:55:02;;;;;;;1.60;0.60;;;11.40;99.90;;;;;;5095892;28;20451;-72
2022/11/10 03:57:29;;;;;;;0.80;0.40;;;11.40;99.90;;;;;;5095877;28;20456;-72
2022/11/10 03:59:56;;;;;;;1.30;0.50;;;11.40;99.90;;;;;;5095146;28;20495;-71
2022/11/10 04:02:24;;;;;;;1.00;0.40;;;11.40;99.90;;;;;;5095274;28;20449;-73
2022/11/10 04:10:20;;;;;;;2.60;0.50;;;11.40;99.90;;;;;;5095537;28;20459;-73
2022/11/10 04:15:42;;;;;;;1.50;0.50;;;11.40;99.90;;;;;;5095594;28;20519;-73
2022/11/10 04:18:23;;;;;;;1.30;0.50;;;11.40;99.90;;;;;;5096071;28;20418;-71
2022/11/10 04:20:50;;;;;;;1.65;0.50;;;11.40;99.90;;;;;;5087824;28;20487;-72
2022/11/10 04:23:26;;;;;;;1.40;0.53;;;11.40;99.90;;;;;;5096435;28;20495;-72
2022/11/10 04:28:46;;;;;;;2.13;0.50;;;11.30;99.90;;;;;;5096085;28;20405;-73
2022/11/10 04:31:14;;;;;;;1.30;0.50;;;11.30;99.90;;;;;;5095245;28;20418;-73
2022/11/10 04:33:43;;;;;;;0.90;0.50;;;11.30;99.90;;;;;;5095245;28;20410;-72
2022/11/10 04:36:12;;;;;;;2.60;0.43;;;11.30;99.90;;;;;;5095683;28;20429;-72
2022/11/10 04:38:39;;;;;;;0.95;0.50;;;11.20;99.90;;;;;;5095377;28;20457;-73
2022/11/10 04:41:07;;;;;;;1.65;0.52;;;11.30;99.90;;;;;;5096668;28;20471;-73
2022/11/10 04:43:34;;;;;;;1.50;0.50;;;11.20;99.90;;;;;;5099856;28;20430;-72
2022/11/10 04:46:01;;;;;;;1.00;0.50;;;11.20;99.90;;;;;;5100075;28;20679;-72
2022/11/10 04:48:29;;;;;;;1.17;0.50;;;11.10;99.90;;;;;;5099796;28;20832;-72
2022/11/10 04:50:58;;;;;;;0.80;0.50;;;11.00;99.90;;;;;;5099821;28;20825;-73
2022/11/10 04:53:25;;;;;;;1.00;0.50;;;11.00;99.90;;;;;;5099397;28;20867;-72
2022/11/10 04:55:53;;;;;;;1.92;0.50;;;11.00;99.90;;;;;;5092106;28;20445;-73
2022/11/10 04:58:20;;;;;;;3.00;0.50;;;10.90;99.90;;;;;;5100041;28;20456;-72
2022/11/10 05:00:47;;;;;;;1.90;0.50;;;10.80;99.90;;;;;;5098362;28;20426;-72
2022/11/10 05:03:14;;;;;;;1.30;0.50;;;10.80;99.90;;;;;;5097779;28;20418;-72
2022/11/10 05:05:41;;;;;;;1.85;0.50;;;10.80;99.90;;;;;;5097920;28;20470;-73
2022/11/10 05:08:10;;;;;;;1.40;0.50;;;10.80;99.90;;;;;;5096348;28;20506;-73
2022/11/10 05:10:38;;;;;;;1.10;0.50;;;10.70;99.90;;;;;;5097187;28;20476;-73
2022/11/10 05:13:05;;;;;;;1.50;0.60;;;10.60;99.90;;;;;;5096627;28;20551;-72
2022/11/10 05:15:33;;;;;;;2.25;0.80;;;10.50;99.90;;;;;;5097177;28;20585;-73
2022/11/10 05:18:00;;;;;;;1.10;0.50;;;10.60;99.90;;;;;;5097604;28;20453;-74
2022/11/10 05:20:27;;;;;;;1.45;0.50;;;10.60;99.90;;;;;;5097935;28;20425;-73
2022/11/10 05:25:41;;;;;;;1.53;0.60;;;10.60;99.90;;;;;;5097447;28;20469;-73
2022/11/10 05:28:12;;;;;;;2.40;0.80;;;10.50;99.90;;;;;;5098204;28;20838;-72
2022/11/10 05:30:40;;;;;;;1.00;0.60;;;10.30;99.90;;;;;;5098062;28;20430;-73
2022/11/10 05:33:07;;;;;;;1.60;0.60;;;10.20;99.90;;;;;;5098025;28;20461;-73
2022/11/10 05:35:39;;;;;;;1.00;0.50;;;10.10;99.90;;;;;;5098565;28;20456;-73
2022/11/10 05:38:06;;;;;;;1.20;0.60;;;10.00;99.90;;;;;;5097713;28;20711;-74
2022/11/10 05:40:37;;;;;;;1.20;0.60;;;10.10;99.90;;;;;;5097315;28;20429;-73
2022/11/10 05:43:05;;;;;;;0.90;0.50;;;10.10;99.90;;;;;;5097890;28;20471;-72
2022/11/10 05:45:32;;;;;;;1.30;0.50;;;10.00;99.90;;;;;;5098683;28;20545;-73
2022/11/10 05:47:59;;;;;;;1.65;0.60;;;10.00;99.90;;;;;;5098604;28;20467;-72
2022/11/10 05:50:26;;;;;;;1.30;0.60;;;10.00;99.90;;;;;;5098615;28;20454;-74
2022/11/10 05:52:55;;;;;;;1.70;0.68;;;10.10;99.90;;;;;;5097516;28;20458;-72
2022/11/10 05:55:24;;;;;;;1.70;0.60;;;10.10;99.90;;;;;;5098744;28;20464;-72
2022/11/10 05:57:52;;;;;;;1.60;0.60;;;10.10;99.90;;;;;;5098097;28;20406;-72
2022/11/10 06:00:22;;;;;;;1.50;0.60;;;10.10;99.90;;;;;;5097236;28;20457;-73
2022/11/10 06:03:00;;;;;;;2.13;0.50;;;10.20;99.90;;;;;;5097461;28;20515;-72
2022/11/10 06:05:28;;;;;;;1.17;0.60;;;10.20;99.90;;;;;;5093239;28;20499;-72
2022/11/10 06:07:55;;;;;;;0.80;0.60;;;10.20;99.90;;;;;;5097848;28;20418;-72
2022/11/10 06:10:22;;;;;;;1.80;0.60;;;10.20;99.90;;;;;;5097969;28;20882;-72
2022/11/10 06:12:49;;;;;;;3.00;0.70;;;10.20;99.90;;;;;;5098045;28;20469;-72
2022/11/10 06:15:16;;;;;;;1.83;1.00;;;10.30;99.90;;;;;;5098020;28;20512;-72
2022/11/10 06:17:45;;;;;;;2.45;0.70;;;10.30;99.90;;;;;;5098967;28;20448;-73
2022/11/10 06:20:13;;;;;;;2.03;0.50;;;10.20;99.90;;;;;;5097879;28;20880;-73
2022/11/10 06:22:40;;;;;;;1.63;0.60;;;10.20;99.90;;;;;;5097387;28;20418;-73
2022/11/10 06:25:08;;;;;;;1.30;0.50;;;10.10;99.90;;;;;;5097917;28;20484;-73
2022/11/10 06:27:35;;;;;;;2.70;0.60;;;10.10;99.90;;;;;;5097441;28;20450;-73
2022/11/10 06:30:02;;;;;;;1.10;0.60;;;10.20;99.90;;;;;;5095670;28;20436;-73
2022/11/10 06:32:29;;;;;;;1.85;0.70;;;10.10;99.90;;;;;;5093979;28;20645;-72
2022/11/10 06:34:57;;;;;;;1.30;0.60;;;10.10;99.90;;;;;;5095383;28;20458;-73
2022/11/10 06:37:24;;;;;;;1.90;0.70;;;10.20;99.90;;;;;;5096060;28;20453;-72
2022/11/10 06:39:51;;;;;;;1.88;0.60;;;10.10;99.90;;;;;;5096551;28;20700;-72
2022/11/10 06:42:18;;;;;;;1.48;0.70;;;10.10;99.90;;;;;;5096402;28;20465;-73
2022/11/10 06:44:45;;;;;;;1.67;0.70;;;10.00;99.90;;;;;;5097013;28;20468;-72
2022/11/10 06:47:12;;;;;;;1.38;0.70;;;10.00;99.90;;;;;;5096714;28;20461;-73
2022/11/10 06:49:39;;;;;;;2.10;0.80;;;10.10;99.90;;;;;;5096518;28;20453;-73
2022/11/10 06:52:07;;;;;;;2.78;0.70;;;10.20;99.90;;;;;;5095409;28;20556;-73
2022/11/10 06:54:34;;;;;;;2.17;0.70;;;10.20;99.90;;;;;;5095253;28;20491;-73
2022/11/10 06:57:01;;;;;;;2.60;0.65;;;10.20;99.90;;;;;;5094663;28;20425;-73
2022/11/10 06:59:28;;;;;;;0.85;0.60;;;10.30;99.90;;;;;;5095456;28;20418;-72
2022/11/10 07:01:55;;;;;;;2.00;0.70;;;10.40;99.90;;;;;;5094735;28;20813;-72
2022/11/10 07:04:22;;;;;;;1.30;0.60;;;10.40;99.90;;;;;;5094018;28;20503;-72
2022/11/10 07:06:49;;;;;;;0.90;0.60;;;10.50;99.90;;;;;;5096100;28;20422;-71
2022/11/10 07:09:18;;;;;;;1.10;0.60;;;10.60;99.90;;;;;;5096086;28;20430;-73
2022/11/10 07:11:44;;;;;;;1.48;0.70;;;10.60;99.90;;;;;;5095109;28;20414;-72
2022/11/10 07:14:11;;;;;;;1.50;0.90;;;10.70;99.90;;;;;;5095789;28;20426;-72
2022/11/10 07:16:38;;;;;;;2.50;0.80;;;10.80;99.90;;;;;;5096468;28;20855;-71
2022/11/10 07:19:05;;;;;;;1.40;0.80;;;10.90;99.90;;;;;;5096457;28;20547;-72
2022/11/10 07:21:32;;;;;;;1.30;0.70;;;11.10;99.90;;;;;;5095499;28;20497;-72
2022/11/10 07:23:59;;;;;;;2.28;0.70;;;11.30;99.90;;;;;;5095203;28;20816;-72
2022/11/10 07:26:27;;;;;;;1.10;0.70;;;11.40;99.90;;;;;;5094756;28;20460;-71
2022/11/10 07:28:54;;;;;;;1.50;0.70;;;11.50;99.90;;;;;;5095216;28;20422;-72
2022/11/10 07:31:21;;;;;;;1.25;0.70;;;11.40;99.90;;;;;;5094958;28;20457;-72
2022/11/10 07:33:48;;;;;;;1.25;0.70;;;11.30;99.90;;;;;;5093625;28;20466;-72
2022/11/10 07:36:15;;;;;;;1.95;0.70;;;11.10;99.90;;;;;;5093021;28;20453;-73
2022/11/10 07:38:42;;;;;;;2.00;0.60;;;11.10;99.90;;;;;;5094208;28;20503;-73
2022/11/10 07:41:09;;;;;;;0.90;0.50;;;11.10;99.90;;;;;;5095323;28;20422;-72
2022/11/10 07:43:38;;;;;;;2.63;0.90;;;11.20;99.90;;;;;;5094588;28;20418;-72
2022/11/10 07:46:05;;;;;;;1.60;0.73;;;11.30;99.90;;;;;;5092983;28;20529;-71
2022/11/10 07:48:32;;;;;;;1.27;0.50;;;11.30;99.90;;;;;;5092821;28;20530;-72
2022/11/10 07:50:59;;;;;;;1.23;0.40;;;11.30;99.90;;;;;;5093016;28;20503;-72
2022/11/10 07:53:26;;;;;;;2.20;0.50;;;11.30;99.90;;;;;;5092650;28;20499;-71
2022/11/10 07:55:54;;;;;;;0.70;0.40;;;11.50;99.90;;;;;;5091614;28;20421;-72
2022/11/10 07:58:21;;;;;;;1.30;0.50;;;11.70;99.90;;;;;;5092284;28;20422;-72
2022/11/10 08:00:49;;;;;;;1.23;0.60;;;11.70;99.90;;;;;;5092836;28;20493;-72
2022/11/10 08:03:18;;;;;;;2.35;0.50;;;11.60;99.90;;;;;;5093505;28;20516;-71
2022/11/10 08:05:45;;;;;;;1.35;0.50;;;11.60;99.90;;;;;;5094545;28;20453;-71
2022/11/10 08:08:12;;;;;;;0.90;0.50;;;11.80;99.90;;;;;;5093826;28;20504;-72
2022/11/10 08:10:42;;;;;;;1.70;0.50;;;11.90;99.90;;;;;;5088101;28;20495;-72
2022/11/10 08:13:10;;;;;;;1.30;0.40;;;12.00;99.90;;;;;;5094069;28;20449;-72
2022/11/10 08:15:38;;;;;;;1.30;0.50;;;12.10;99.90;;;;;;5094134;28;20425;-71
2022/11/10 08:18:14;;;;;;;1.13;0.60;;;12.20;99.90;;;;;;5094089;28;20515;-71
2022/11/10 08:20:41;;;;;;;1.58;0.60;;;12.10;99.90;;;;;;5092883;28;20457;-72
2022/11/10 08:23:08;;;;;;;1.83;0.60;;;11.80;99.90;;;;;;5094856;28;20683;-72
2022/11/10 08:25:37;;;;;;;3.08;0.70;;;11.60;99.90;;;;;;5093860;28;20951;-71
2022/11/10 08:28:06;;;;;;;1.30;0.70;;;11.50;99.90;;;;;;5094513;28;20476;-70
2022/11/10 08:30:35;;;;;;;3.20;0.60;;;11.40;99.90;;;;;;5093489;28;20876;-73
2022/11/10 08:33:04;;;;;;;2.03;0.60;;;11.30;99.90;;;;;;5094252;28;20450;-73
2022/11/10 08:35:37;;;;;;;1.80;0.50;;;11.20;99.90;;;;;;5094410;28;20516;-74
2022/11/10 08:38:12;;;;;;;2.03;0.60;;;11.30;99.90;;;;;;5095679;28;20418;-73
2022/11/10 08:40:43;;;;;;;1.33;0.60;;;11.30;99.90;;;;;;5094388;28;20426;-73
2022/11/10 08:43:11;;;;;;;1.30;0.60;;;11.30;99.90;;;;;;5094390;28;20426;-73
2022/11/10 08:45:42;;;;;;;2.85;0.50;;;11.40;99.90;;;;;;5094775;28;20433;-72
2022/11/10 08:48:12;;;;;;;1.73;0.57;;;11.50;99.90;;;;;;5092983;28;20422;-73
2022/11/10 08:50:41;;;;;;;1.00;0.40;;;11.60;99.90;;;;;;5094323;28;20479;-72
2022/11/10 08:53:11;;;;;;;1.67;0.40;;;11.60;99.90;;;;;;5087576;28;20471;-71
2022/11/10 08:55:38;;;;;;;2.20;0.57;;;11.70;99.90;;;;;;5092885;28;20834;-73
2022/11/10 08:58:06;;;;;;;0.90;0.40;;;11.80;99.90;;;;;;5093194;28;20511;-72
2022/11/10 09:00:34;;;;;;;1.00;0.50;;;11.90;99.90;;;;;;5095038;28;20902;-72
2022/11/10 09:03:06;;;;;;;0.80;0.40;;;12.00;99.90;;;;;;5094954;28;20406;-72
2022/11/10 09:05:34;;;;;;;1.33;0.33;;;12.00;99.90;;;;;;5093748;28;20425;-72
2022/11/10 09:08:03;;;;;;;0.80;0.33;;;12.10;99.90;;;;;;5094235;28;20456;-70
2022/11/10 09:10:30;;;;;;;1.13;0.40;;;12.10;99.90;;;;;;5093693;28;20752;-71
2022/11/10 09:13:00;;;;;;;0.98;0.30;;;12.30;96.80;;;;;;5094962;28;20874;-71
2022/11/10 09:15:27;;;;;;;1.70;0.30;;;12.40;43.10;;;;;;5093195;28;20435;-71
2022/11/10 09:17:54;;;;;;;1.10;0.30;;;12.60;28.60;;;;;;5094122;28;20457;-73
2022/11/10 09:20:21;;;;;;;0.90;0.30;;;12.60;13.40;;;;;;5094575;28;20445;-72
2022/11/10 09:22:48;;;;;;;0.90;0.30;;;12.60;1.00;;;;;;5094840;28;20508;-72
2022/11/10 09:25:16;;;;;;;0.80;0.40;;;12.60;17.00;;;;;;5094219;28;20532;-72
2022/11/10 09:27:43;;;;;;;1.00;0.30;;;12.80;30.50;;;;;;5095123;28;20417;-72
2022/11/10 09:30:11;;;;;;;1.10;0.30;;;12.80;5.10;;;;;;5098610;28;20490;-72
2022/11/10 09:32:38;;;;;;;1.50;0.30;;;12.80;12.10;;;;;;5098162;28;20470;-72
2022/11/10 09:35:06;;;;;;;1.00;0.40;;;13.00;4.00;;;;;;5098252;28;20432;-73
2022/11/10 09:37:39;;;;;;;1.00;0.30;;;13.00;1.00;;;;;;5097262;28;20425;-73
2022/11/10 09:40:15;;;;;;;0.75;0.40;;;13.10;1.00;;;;;;5099148;28;20426;-73
2022/11/10 09:42:43;;;;;;;1.92;0.40;;;13.10;1.00;;;;;;5098149;28;20852;-73
2022/11/10 09:45:21;;;;;;;0.90;0.30;;;13.00;1.00;;;;;;5097297;28;20433;-73
2022/11/10 09:47:55;;;;;;;1.30;0.30;;;13.10;1.00;;;;;;5098512;28;20822;-72
2022/11/10 09:50:34;;;;;;;1.40;0.30;;;13.20;1.00;;;;;;5100018;28;20425;-72
2022/11/10 09:53:02;;;;;;;0.70;0.30;;;13.20;1.00;;;;;;5098505;28;20763;-72
2022/11/10 09:55:35;;;;;;;1.00;0.30;;;13.20;1.00;;;;;;5090240;28;20414;-73
2022/11/10 09:58:04;;;;;;;1.50;0.30;;;13.30;1.00;;;;;;5096868;28;20976;-73
2022/11/10 10:00:34;;;;;;;0.60;0.30;;;13.40;1.00;;;;;;5097450;28;20457;-72
2022/11/10 10:03:03;;;;;;;0.88;0.20;;;13.40;1.00;;;;;;5096404;28;20899;-72
2022/11/10 10:05:51;;;;;;;1.40;0.30;;;13.40;1.00;;;;;;5094014;28;20522;-72
2022/11/10 10:08:26;;;;;;;1.77;0.30;;;13.50;1.00;;;;;;5096484;28;20444;-72
2022/11/10 10:11:07;;;;;;;1.83;0.30;;;13.50;1.00;;;;;;5097730;28;20457;-71
2022/11/10 10:14:10;;;;;;;0.60;0.30;;;13.50;1.00;;;;;;5096105;28;20429;-72
2022/11/10 10:16:42;;;;;;;0.83;0.30;;;13.50;1.00;;;;;;5097318;28;20414;-72
2022/11/10 10:19:19;;;;;;;1.00;0.20;;;13.50;1.00;;;;;;5088675;28;20431;-72
2022/11/10 10:22:09;;;;;;;0.75;0.25;;;13.60;1.00;;;;;;5095451;28;20420;-73
2022/11/10 10:24:38;;;;;;;0.88;0.30;;;13.60;1.00;;;;;;5096061;28;20503;-72
2022/11/10 10:27:09;;;;;;;0.60;0.30;;;13.60;1.00;;;;;;5094828;28;20484;-72
2022/11/10 10:29:40;;;;;;;0.60;0.30;;;13.60;1.00;;;;;;5096903;28;20450;-72
2022/11/10 10:32:12;;;;;;;0.55;0.30;;;13.70;1.00;;;;;;5096276;28;20839;-72
2022/11/10 10:34:41;;;;;;;0.50;0.20;;;13.80;1.00;;;;;;5095888;28;20434;-71
2022/11/10 10:37:21;;;;;;;1.92;0.40;;;13.80;1.00;;;;;;5077633;28;21000;-72
2022/11/10 10:39:50;;;;;;;1.30;0.30;;;13.80;1.00;;;;;;5086360;28;20508;-72
2022/11/10 10:42:28;;;;;;;1.50;0.38;;;13.80;1.00;;;;;;5095157;28;20505;-72
2022/11/10 10:45:18;;;;;;;1.27;0.30;;;13.80;1.00;;;;;;5094828;28;20457;-71
2022/11/10 10:47:45;;;;;;;0.90;0.30;;;13.90;1.00;;;;;;5095576;28;20467;-72
2022/11/10 10:50:25;;;;;;;0.60;0.30;;;13.90;1.00;;;;;;5095539;28;20536;-72
2022/11/10 10:53:23;;;;;;;1.00;0.30;;;14.00;1.00;;;;;;5095028;28;20913;-72
2022/11/10 10:55:58;;;;;;;0.63;0.30;;;14.10;1.00;;;;;;5011554;28;20503;-71
2022/11/10 10:58:28;;;;;;;1.23;0.30;;;14.10;1.00;;;;;;5079348;28;20453;-71
2022/11/10 11:01:03;;;;;;;1.30;0.30;;;14.20;1.00;;;;;;5094196;28;20417;-73
2022/11/10 11:03:39;;;;;;;0.90;0.30;;;14.10;1.00;;;;;;5095302;28;20421;-70
2022/11/10 11:06:17;;;;;;;0.65;0.30;;;14.10;99.90;;;;;;5094808;28;20436;-72
2022/11/10 11:08:55;;;;;;;1.67;0.50;;;14.10;1.00;;;;;;5091698;28;20459;-72
2022/11/10 11:11:26;;;;;;;1.38;0.30;;;14.10;99.90;;;;;;5090297;28;20433;-73
2022/11/10 11:13:53;;;;;;;0.60;0.30;;;14.20;1.00;;;;;;5094683;28;20483;-73
2022/11/10 11:16:21;;;;;;;1.00;0.40;;;14.40;99.90;;;;;;5095247;28;20422;-72
2022/11/10 11:18:48;;;;;;;0.85;0.50;;;14.40;99.90;;;;;;5094513;28;20462;-73
2022/11/10 11:21:28;;;;;;;0.70;0.30;;;14.40;99.90;;;;;;5093881;28;20430;-72
2022/11/10 11:24:12;;;;;;;0.80;0.30;;;14.50;99.90;;;;;;5090914;28;20759;-72
2022/11/10 11:26:50;;;;;;;0.50;0.30;;;14.50;99.90;;;;;;5091952;28;20531;-72
2022/11/10 11:29:45;;;;;;;0.77;0.30;;;14.50;99.90;;;;;;5093539;28;20460;-72
2022/11/10 11:32:27;;;;;;;0.83;0.30;;;14.50;99.90;;;;;;5060741;28;20457;-73
2022/11/10 11:35:03;;;;;;;0.60;0.30;;;14.60;77.30;;;;;;5094599;28;20505;-71
2022/11/10 11:37:36;;;;;;;0.90;0.30;;;14.70;35.60;;;;;;5095032;28;20531;-72
2022/11/10 11:40:18;;;;;;;0.85;0.30;;;14.70;1.00;;;;;;5095486;28;20426;-71
2022/11/10 11:42:56;;;;;;;0.73;0.20;;;14.70;20.00;;;;;;5084200;28;20430;-72
2022/11/10 11:45:35;;;;;;;2.30;0.30;;;14.70;1.00;;;;;;5073349;28;20778;-71
2022/11/10 11:48:19;;;;;;;0.50;0.30;;;14.70;99.90;;;;;;5073795;28;20752;-71
2022/11/10 11:50:54;;;;;;;0.95;0.20;;;14.70;1.00;;;;;;5072847;28;20470;-73
2022/11/10 11:53:39;;;;;;;1.10;0.20;;;14.80;99.90;;;;;;5074134;28;20477;-73
2022/11/10 11:56:20;;;;;;;1.10;0.30;;;14.70;1.00;;;;;;5073724;28;20416;-72
2022/11/10 11:59:01;;;;;;;2.10;0.40;;;14.80;1.00;;;;;;5064624;28;20467;-73
2022/11/10 12:01:51;;;;;;;0.75;0.30;;;14.80;99.90;;;;;;5072857;28;20443;-72
2022/11/10 12:04:45;;;;;;;0.70;0.30;;;14.80;99.90;;;;;;5072545;28;20428;-72
2022/11/10 12:07:27;;;;;;;0.80;0.30;;;14.80;1.00;;;;;;5069506;28;20459;-72
2022/11/10 12:10:05;;;;;;;0.50;0.20;;;14.80;1.00;;;;;;5073784;28;20420;-73
2022/11/10 12:13:07;;;;;;;0.70;0.20;;;14.80;1.00;;;;;;5074167;28;20484;-73
2022/11/10 12:15:45;;;;;;;0.60;0.27;;;14.70;1.00;;;;;;5073844;28;20450;-72
2022/11/10 12:18:24;;;;;;;0.80;0.20;;;14.70;1.00;;;;;;5062933;28;20516;-71
2022/11/10 12:21:05;;;;;;;1.10;0.30;;;14.80;79.00;;;;;;5073059;28;20743;-71
2022/11/10 12:23:37;;;;;;;0.90;0.30;;;14.80;99.90;;;;;;5061491;28;20416;-71
2022/11/10 12:26:13;;;;;;;0.50;0.20;;;14.90;1.00;;;;;;5063293;28;20435;-72
2022/11/10 12:28:45;;;;;;;1.20;0.20;;;14.90;99.90;;;;;;5073063;28;20427;-73
2022/11/10 12:31:18;;;;;;;1.10;0.40;;;14.90;1.00;;;;;;5071708;28;20783;-72
2022/11/10 12:33:48;;;;;;;0.60;0.20;;;14.90;1.00;;;;;;5073615;28;20431;-72
2022/11/10 12:36:20;;;;;;;0.60;0.20;;;14.90;1.00;;;;;;5073592;28;20432;-72
2022/11/10 12:38:55;;;;;;;0.50;0.20;;;14.90;99.90;;;;;;5073065;28;20485;-72
2022/11/10 12:41:29;;;;;;;0.80;0.20;;;14.90;1.00;;;;;;5073363;28;20862;-72
2022/11/10 12:44:08;;;;;;;1.10;0.20;;;15.00;99.90;;;;;;5093351;28;20429;-72
2022/11/10 12:46:35;;;;;;;0.70;0.20;;;15.00;29.10;;;;;;5087395;28;20425;-72
2022/11/10 12:49:14;;;;;;;2.85;0.88;;;15.00;99.90;;;;;;5093041;28;20422;-73
2022/11/10 12:51:50;;;;;;;2.85;1.60;;;14.90;1.00;;;;;;5093423;28;20555;-73
2022/11/10 12:54:19;;;;;;;0.82;0.30;;;14.90;1.00;;;;;;5093376;28;21020;-72
2022/11/10 12:56:50;;;;;;;1.08;0.30;;;14.90;99.90;;;;;;5092240;28;20583;-72
2022/11/10 12:59:36;;;;;;;1.17;0.30;;;15.00;99.90;;;;;;5092717;28;20425;-72
2022/11/10 13:02:06;;;;;;;0.70;0.30;;;15.00;1.00;;;;;;5085935;28;20924;-72
2022/11/10 13:04:33;;;;;;;0.80;0.30;;;15.00;99.90;;;;;;5096348;28;20522;-72
2022/11/10 13:07:04;;;;;;;1.23;0.30;;;15.00;1.00;;;;;;5096384;28;20437;-72
2022/11/10 13:09:33;;;;;;;0.70;0.30;;;15.00;1.00;;;;;;5094923;28;20471;-74
2022/11/10 13:12:16;;;;;;;0.60;0.30;;;14.90;1.00;;;;;;5095635;28;20450;-73
2022/11/10 13:14:44;;;;;;;0.50;0.22;;;14.90;99.90;;;;;;5095553;28;20422;-72
2022/11/10 13:17:27;;;;;;;0.57;0.20;;;14.90;1.00;;;;;;5095150;28;20449;-72
2022/11/10 13:19:56;;;;;;;0.73;0.30;;;14.90;99.90;;;;;;5094288;28;21051;-72
2022/11/10 13:22:35;;;;;;;0.90;0.70;;;14.90;1.00;;;;;;5097896;28;20422;-72